TimeEST,TemperatureF,Dew PointF,Humidity,Sea Level PressureIn,VisibilityMPH,Wind Direction,Wind SpeedMPH,Gust SpeedMPH,PrecipitationIn,Events,Conditions,WindDirDegrees,DateUTC
12:52 AM,19.9,10.9,68,30.14,9.0,WNW,10.4,-,N/A,,Overcast,300,2013-02-17 05:52:00
1:33 AM,19.4,12.2,74,30.11,4.0,WNW,8.1,-,0.00,Snow,Light Snow,300,2013-02-17 06:33:00
1:43 AM,19.4,12.2,74,30.11,5.0,WNW,6.9,-,0.00,Snow,Light Snow,300,2013-02-17 06:43:00
1:52 AM,19.9,12.9,74,30.14,9.0,WNW,5.8,-,0.00,,Overcast,300,2013-02-17 06:52:00
2:28 AM,19.4,12.2,74,30.11,10.0,WNW,4.6,-,0.00,,Overcast,290,2013-02-17 07:28:00
2:43 AM,17.6,12.2,79,30.11,10.0,West,4.6,-,0.00,,Mostly Cloudy,260,2013-02-17 07:43:00
2:52 AM,18.0,12.9,81,30.14,10.0,West,3.5,-,0.00,,Mostly Cloudy,270,2013-02-17 07:52:00
3:52 AM,18.0,14.0,84,30.14,9.0,NW,5.8,-,0.00,,Mostly Cloudy,320,2013-02-17 08:52:00
4:52 AM,16.0,12.9,88,30.16,10.0,NW,4.6,-,N/A,,Mostly Cloudy,320,2013-02-17 09:52:00
5:52 AM,16.0,12.0,84,30.17,10.0,NNW,6.9,-,N/A,,Clear,340,2013-02-17 10:52:00
6:52 AM,12.9,9.0,84,30.20,10.0,West,4.6,-,N/A,,Clear,280,2013-02-17 11:52:00
7:52 AM,16.0,10.0,77,30.22,10.0,NW,4.6,-,N/A,,Clear,310,2013-02-17 12:52:00
8:52 AM,18.0,10.0,71,30.23,10.0,NW,11.5,-,N/A,,Clear,320,2013-02-17 13:52:00
9:52 AM,19.9,7.0,57,30.26,10.0,WNW,4.6,-,N/A,,Partly Cloudy,300,2013-02-17 14:52:00
10:52 AM,23.0,7.0,50,30.26,10.0,WNW,5.8,-,N/A,,Partly Cloudy,290,2013-02-17 15:52:00
11:52 AM,26.1,6.1,43,30.26,10.0,West,4.6,-,N/A,,Partly Cloudy,270,2013-02-17 16:52:00
12:52 PM,26.1,6.1,43,30.25,10.0,Variable,4.6,-,N/A,,Partly Cloudy,0,2013-02-17 17:52:00
1:52 PM,28.0,3.9,36,30.23,10.0,Calm,Calm,-,N/A,,Partly Cloudy,0,2013-02-17 18:52:00
2:52 PM,30.0,1.9,30,30.22,10.0,Calm,Calm,-,N/A,,Partly Cloudy,0,2013-02-17 19:52:00
3:52 PM,30.9,1.9,29,30.22,10.0,WNW,5.8,-,N/A,,Partly Cloudy,290,2013-02-17 20:52:00
4:52 PM,32.0,1.0,27,30.21,10.0,West,6.9,-,N/A,,Partly Cloudy,270,2013-02-17 21:52:00
5:52 PM,30.2,1.4,29,30.19,10.0,WSW,4.6,-,N/A,,Partly Cloudy,240,2013-02-17 22:52:00
6:52 PM,28.0,3.9,36,30.23,10.0,SSE,3.5,-,N/A,,Partly Cloudy,160,2013-02-17 23:52:00
7:52 PM,27.0,5.0,39,30.22,10.0,SE,3.5,-,N/A,,Partly Cloudy,140,2013-02-18 00:52:00
8:52 PM,21.9,8.1,55,30.22,10.0,SE,3.5,-,N/A,,Clear,130,2013-02-18 01:52:00
9:52 PM,25.0,8.1,49,30.22,10.0,SE,3.5,-,N/A,,Clear,130,2013-02-18 02:52:00